createdAt,value
2019-04-05T00:00:05.867Z,12.87
2019-04-05T00:02:38.197Z,16.63
2019-04-05T00:05:11.081Z,14.23
2019-04-05T00:07:43.431Z,14.03
2019-04-05T00:10:15.683Z,14.57
2019-04-05T00:12:48.102Z,14.80
2019-04-05T00:15:20.593Z,18.17
2019-04-05T00:17:53.068Z,15.83
2019-04-05T00:20:25.382Z,14.93
2019-04-05T00:22:57.502Z,15.03
2019-04-05T00:25:29.773Z,16.93
2019-04-05T00:28:02.038Z,16.90
2019-04-05T00:30:34.532Z,16.90
2019-04-05T00:33:06.668Z,15.53
2019-04-05T00:35:40.858Z,17.50
2019-04-05T00:38:13.229Z,14.33
2019-04-05T00:40:45.559Z,14.57
2019-04-05T00:43:17.907Z,13.60
2019-04-05T00:45:50.529Z,18.47
2019-04-05T00:48:22.878Z,15.23
2019-04-05T00:50:55.250Z,15.70
2019-04-05T00:53:27.563Z,20.10
2019-04-05T00:55:59.916Z,13.20
2019-04-05T00:58:32.242Z,19.33
2019-04-05T01:01:04.485Z,16.07
2019-04-05T01:03:36.683Z,15.73
2019-04-05T01:06:09.000Z,18.40
2019-04-05T01:08:41.321Z,17.43
2019-04-05T01:11:13.648Z,16.27
2019-04-05T01:13:46.006Z,17.60
2019-04-05T01:16:18.157Z,17.50
2019-04-05T01:18:50.660Z,19.33
2019-04-05T01:21:24.446Z,16.57
2019-04-05T01:24:00.614Z,15.73
2019-04-05T01:26:34.965Z,16.77
2019-04-05T01:29:07.180Z,17.90
2019-04-05T01:31:39.502Z,13.63
2019-04-05T01:34:11.814Z,18.70
2019-04-05T01:36:44.717Z,16.23
2019-04-05T01:39:17.006Z,19.33
2019-04-05T01:41:49.553Z,14.77
2019-04-05T01:44:21.918Z,14.80
2019-04-05T01:46:54.316Z,16.00
2019-04-05T01:49:26.531Z,21.07
2019-04-05T01:51:58.950Z,18.37
2019-04-05T01:54:31.439Z,17.17
2019-04-05T01:57:03.724Z,15.60
2019-04-05T01:59:36.461Z,18.93
2019-04-05T02:02:09.252Z,15.40
2019-04-05T02:04:41.566Z,14.93
2019-04-05T02:07:13.951Z,16.70
2019-04-05T02:09:46.361Z,15.63
2019-04-05T02:12:19.187Z,23.57
2019-04-05T02:14:51.528Z,21.20
2019-04-05T02:17:23.847Z,20.33
2019-04-05T02:19:56.459Z,20.77
2019-04-05T02:22:28.793Z,18.13
2019-04-05T02:25:01.414Z,22.03
2019-04-05T02:27:33.846Z,17.43
2019-04-05T02:30:06.188Z,17.27
2019-04-05T02:32:38.568Z,16.67
2019-04-05T02:35:11.254Z,17.53
2019-04-05T02:37:43.730Z,18.07
2019-04-05T02:40:16.252Z,20.70
2019-04-05T02:42:51.242Z,15.77
2019-04-05T02:45:25.074Z,19.10
2019-04-05T02:48:02.290Z,16.90
2019-04-05T02:50:38.198Z,18.73
2019-04-05T02:53:11.443Z,19.33
2019-04-05T02:55:44.008Z,17.90
2019-04-05T02:58:17.570Z,17.93
2019-04-05T03:00:50.383Z,18.93
2019-04-05T03:03:23.170Z,17.30
2019-04-05T03:05:55.943Z,17.30
2019-04-05T03:08:28.281Z,20.07
2019-04-05T03:11:07.879Z,19.53
2019-04-05T03:13:44.931Z,15.93
2019-04-05T03:16:21.687Z,17.93
2019-04-05T03:19:00.054Z,18.80
2019-04-05T03:21:35.785Z,17.73
2019-04-05T03:24:11.828Z,21.03
2019-04-05T03:26:48.912Z,18.70
2019-04-05T03:29:21.569Z,18.60
2019-04-05T03:31:54.135Z,15.53
2019-04-05T03:34:26.448Z,19.07
2019-04-05T03:36:59.674Z,18.57
2019-04-05T03:39:33.332Z,17.60
2019-04-05T03:42:05.929Z,19.20
2019-04-05T03:44:38.426Z,18.60
2019-04-05T03:47:11.191Z,19.53
2019-04-05T03:49:44.815Z,20.00
2019-04-05T03:52:17.150Z,19.67
2019-04-05T03:54:49.454Z,19.10
2019-04-05T03:57:22.202Z,18.73
2019-04-05T03:59:54.529Z,17.03
2019-04-05T04:02:26.812Z,19.53
2019-04-05T04:04:59.733Z,19.57
2019-04-05T04:07:32.063Z,21.47
2019-04-05T04:10:04.475Z,17.20
2019-04-05T04:12:36.831Z,21.50
2019-04-05T04:15:13.917Z,23.20
2019-04-05T04:17:46.976Z,20.37
2019-04-05T04:20:35.470Z,21.00
2019-04-05T04:23:09.231Z,23.50
2019-04-05T04:25:42.088Z,28.07
2019-04-05T04:28:14.370Z,22.67
2019-04-05T04:30:47.073Z,24.10
2019-04-05T04:33:19.845Z,18.47
2019-04-05T04:35:52.438Z,19.97
2019-04-05T04:38:25.139Z,18.50
2019-04-05T04:40:58.255Z,22.27
2019-04-05T04:43:30.607Z,24.20
2019-04-05T04:46:03.296Z,21.43
2019-04-05T04:48:35.889Z,25.80
2019-04-05T04:51:08.736Z,25.00
2019-04-05T04:53:41.644Z,19.27
2019-04-05T04:56:14.300Z,18.27
2019-04-05T04:58:46.842Z,21.47
2019-04-05T05:01:19.818Z,25.73
2019-04-05T05:03:52.568Z,22.37
2019-04-05T05:06:25.371Z,22.13
2019-04-05T05:08:58.765Z,21.17
2019-04-05T05:11:31.300Z,22.87
2019-04-05T05:14:04.138Z,24.50
2019-04-05T05:16:36.427Z,21.43
2019-04-05T05:19:09.055Z,21.57
2019-04-05T05:21:43.184Z,20.17
2019-04-05T05:24:16.148Z,23.67
2019-04-05T05:26:48.830Z,21.00
2019-04-05T05:29:21.458Z,19.80
2019-04-05T05:31:54.043Z,19.57
2019-04-05T05:34:26.648Z,27.67
2019-04-05T05:36:58.952Z,20.17
2019-04-05T05:39:31.669Z,20.37
2019-04-05T05:42:03.957Z,23.03
2019-04-05T05:44:36.588Z,17.60
2019-04-05T05:47:09.183Z,22.57
2019-04-05T05:49:41.585Z,20.03
2019-04-05T05:52:14.379Z,24.07
2019-04-05T05:54:46.894Z,23.37
2019-04-05T05:57:19.290Z,20.27
2019-04-05T05:59:51.661Z,21.20
2019-04-05T06:02:24.032Z,23.00
2019-04-05T06:04:56.442Z,21.27
2019-04-05T06:07:28.899Z,22.73
2019-04-05T06:10:01.175Z,23.37
2019-04-05T06:12:33.437Z,22.87
2019-04-05T06:15:05.876Z,22.33
2019-04-05T06:17:38.264Z,19.77
2019-04-05T06:20:11.127Z,21.63
2019-04-05T06:22:43.400Z,21.10
2019-04-05T06:25:15.641Z,19.83
2019-04-05T06:27:47.893Z,23.57
2019-04-05T06:30:20.327Z,23.73
2019-04-05T06:32:52.597Z,21.93
2019-04-05T06:35:25.294Z,26.20
2019-04-05T06:37:57.985Z,21.67
2019-04-05T06:40:40.114Z,26.57
2019-04-05T06:43:06.789Z,23.57
2019-04-05T06:45:38.436Z,21.10
2019-04-05T06:48:19.062Z,18.73
2019-04-05T06:50:47.320Z,28.13
2019-04-05T06:53:19.214Z,22.70
2019-04-05T06:55:51.720Z,26.77
2019-04-05T06:58:29.037Z,22.33
2019-04-05T07:00:58.335Z,26.23
2019-04-05T07:03:30.753Z,24.27
2019-04-05T07:06:03.260Z,24.33
2019-04-05T07:08:35.493Z,24.07
2019-04-05T07:11:08.049Z,25.83
2019-04-05T07:13:40.348Z,24.93
2019-04-05T07:16:12.517Z,29.77
2019-04-05T07:18:44.892Z,29.93
2019-04-05T07:21:17.592Z,30.57
2019-04-05T07:23:49.756Z,35.10
2019-04-05T07:26:22.332Z,32.30
2019-04-05T07:28:54.565Z,32.03
2019-04-05T07:31:27.495Z,38.43
2019-04-05T07:33:59.824Z,38.27
2019-04-05T07:36:32.251Z,41.40
2019-04-05T07:39:06.427Z,40.93
2019-04-05T07:41:38.621Z,41.83
2019-04-05T07:44:11.268Z,40.07
2019-04-05T07:46:46.353Z,47.60
2019-04-05T07:49:17.772Z,42.77
2019-04-05T07:51:50.112Z,45.57
2019-04-05T07:54:22.769Z,46.10
2019-04-05T07:56:55.203Z,46.80
2019-04-05T07:59:27.589Z,51.27
2019-04-05T08:01:59.788Z,51.77
2019-04-05T08:04:32.311Z,53.37
2019-04-05T08:07:05.064Z,45.77
2019-04-05T08:09:38.314Z,49.37
2019-04-05T08:12:11.087Z,51.57
2019-04-05T08:14:44.018Z,47.27
2019-04-05T08:17:16.388Z,50.90
2019-04-05T08:19:49.961Z,53.20
2019-04-05T08:22:23.767Z,52.33
2019-04-05T08:24:57.864Z,52.87
2019-04-05T08:27:31.881Z,46.77
2019-04-05T08:30:05.829Z,49.20
2019-04-05T08:32:38.666Z,51.30
2019-04-05T08:35:11.191Z,53.43
2019-04-05T08:37:43.518Z,58.90
2019-04-05T08:40:16.423Z,51.90
2019-04-05T08:42:48.895Z,54.30
2019-04-05T08:45:21.163Z,51.33
2019-04-05T08:47:53.488Z,54.27
2019-04-05T08:50:26.019Z,52.53
2019-04-05T08:52:58.552Z,52.90
2019-04-05T08:55:30.784Z,45.67
2019-04-05T08:58:03.152Z,53.10
2019-04-05T09:00:35.363Z,49.87
2019-04-05T09:03:07.981Z,55.23
2019-04-05T09:05:40.320Z,48.63
2019-04-05T09:08:12.653Z,47.97
2019-04-05T09:10:44.978Z,50.93
2019-04-05T09:13:17.416Z,47.87
2019-04-05T09:15:49.509Z,53.40
2019-04-05T09:18:21.899Z,52.03
2019-04-05T09:20:54.260Z,51.83
2019-04-05T09:23:26.777Z,55.67
2019-04-05T09:25:59.088Z,50.60
2019-04-05T09:28:31.572Z,55.77
2019-04-05T09:31:04.018Z,54.80
2019-04-05T09:33:36.936Z,46.93
2019-04-05T09:36:09.419Z,64.47
2019-04-05T09:38:41.888Z,60.63
2019-04-05T09:41:15.134Z,62.17
2019-04-05T09:43:48.063Z,57.63
2019-04-05T09:46:20.820Z,62.20
2019-04-05T09:48:54.738Z,61.77
2019-04-05T09:51:27.502Z,69.50
2019-04-05T09:54:00.591Z,69.70
2019-04-05T09:56:33.094Z,62.60
2019-04-05T09:59:05.323Z,72.10
2019-04-05T10:01:37.692Z,69.23
2019-04-05T10:04:10.304Z,69.37
2019-04-05T10:06:42.936Z,72.67
2019-04-05T10:09:15.140Z,73.17
2019-04-05T10:11:47.507Z,78.37
2019-04-05T10:14:20.093Z,76.50
2019-04-05T10:16:52.594Z,67.40
2019-04-05T10:19:24.928Z,71.80
2019-04-05T10:21:57.404Z,77.03
2019-04-05T10:24:32.917Z,88.33
2019-04-05T10:27:04.632Z,75.17
2019-04-05T10:29:37.366Z,110.33
2019-04-05T10:32:10.361Z,79.50
2019-04-05T10:34:42.549Z,85.43
2019-04-05T10:37:15.405Z,82.47
2019-04-05T10:39:48.090Z,88.40
2019-04-05T10:42:30.420Z,79.10
2019-04-05T10:45:04.252Z,87.50
2019-04-05T10:47:36.958Z,80.70
2019-04-05T10:50:11.402Z,83.93
2019-04-05T10:52:43.715Z,87.03
2019-04-05T10:55:16.063Z,96.77
2019-04-05T10:57:48.526Z,102.43
2019-04-05T11:00:21.727Z,85.20
2019-04-05T11:02:54.319Z,90.73
2019-04-05T11:05:26.729Z,89.43
2019-04-05T11:07:59.307Z,90.47
2019-04-05T11:10:32.370Z,89.93
2019-04-05T11:13:04.725Z,81.57
2019-04-05T11:15:37.066Z,99.43
2019-04-05T11:18:09.824Z,95.17
2019-04-05T11:20:42.668Z,83.03
2019-04-05T11:23:14.926Z,87.93
2019-04-05T11:25:47.301Z,85.27
2019-04-05T11:28:19.994Z,82.90
2019-04-05T11:30:52.464Z,88.90
2019-04-05T11:33:24.949Z,77.53
2019-04-05T11:35:58.052Z,72.97
2019-04-05T11:38:30.568Z,66.07
2019-04-05T11:41:03.764Z,67.07
2019-04-05T11:43:37.776Z,64.13
2019-04-05T11:46:11.108Z,59.10
2019-04-05T11:48:43.509Z,56.50
2019-04-05T11:51:15.806Z,59.30
2019-04-05T11:53:48.094Z,62.87
2019-04-05T11:56:20.571Z,51.73
2019-04-05T11:58:53.053Z,57.83
2019-04-05T12:01:29.599Z,49.77
2019-04-05T12:04:01.803Z,48.90
2019-04-05T12:06:35.252Z,51.63
2019-04-05T12:09:07.699Z,47.63
2019-04-05T12:11:39.934Z,47.30
2019-04-05T12:14:12.424Z,54.00
2019-04-05T12:16:45.046Z,52.50
2019-04-05T12:19:17.492Z,51.83
2019-04-05T12:21:51.603Z,49.20
2019-04-05T12:24:23.964Z,48.40
2019-04-05T12:26:56.654Z,52.03
2019-04-05T12:29:29.273Z,54.10
2019-04-05T12:32:01.649Z,60.83
2019-04-05T12:34:34.074Z,63.73
2019-04-05T12:37:06.447Z,55.93
2019-04-05T12:39:39.233Z,51.60
2019-04-05T12:42:12.858Z,52.87
2019-04-05T12:44:45.535Z,49.03
2019-04-05T12:47:18.141Z,74.53
2019-04-05T12:49:50.371Z,53.97
2019-04-05T12:52:27.072Z,58.40
2019-04-05T12:54:57.170Z,50.50
2019-04-05T12:57:29.699Z,58.30
2019-04-05T13:00:02.187Z,53.77
2019-04-05T13:02:34.576Z,55.20
2019-04-05T13:05:07.360Z,51.43
2019-04-05T13:07:40.254Z,48.00
2019-04-05T13:10:13.197Z,49.37
2019-04-05T13:12:45.759Z,54.87
2019-04-05T13:15:18.301Z,58.73
2019-04-05T13:17:50.725Z,58.80
2019-04-05T13:20:23.047Z,50.53
2019-04-05T13:22:56.169Z,52.73
2019-04-05T13:25:28.630Z,52.03
2019-04-05T13:28:12.506Z,53.30
2019-04-05T13:30:35.328Z,48.50
2019-04-05T13:33:08.377Z,53.40
2019-04-05T13:35:40.827Z,50.67
2019-04-05T13:38:13.119Z,47.53
2019-04-05T13:40:45.445Z,50.70
2019-04-05T13:43:17.939Z,53.60
2019-04-05T13:45:50.696Z,55.40
2019-04-05T13:48:22.856Z,46.77
2019-04-05T13:50:55.178Z,50.83
2019-04-05T13:53:27.377Z,55.43
2019-04-05T13:55:59.668Z,50.57
2019-04-05T13:58:31.749Z,49.43
2019-04-05T14:01:04.233Z,51.03
2019-04-05T14:03:36.332Z,53.70
2019-04-05T14:06:10.727Z,52.77
2019-04-05T14:08:42.959Z,47.07
2019-04-05T14:11:15.238Z,51.60
2019-04-05T14:13:47.839Z,50.37
2019-04-05T14:16:20.178Z,49.67
2019-04-05T14:18:52.488Z,53.77
2019-04-05T14:21:24.844Z,55.23
2019-04-05T14:23:56.958Z,47.93
2019-04-05T14:26:29.466Z,50.60
2019-04-05T14:29:03.672Z,49.73
2019-04-05T14:31:36.641Z,54.47
2019-04-05T14:34:08.744Z,52.87
2019-04-05T14:36:41.116Z,52.27
2019-04-05T14:39:13.760Z,48.87
2019-04-05T14:41:46.285Z,52.77
2019-04-05T14:44:18.531Z,51.17
2019-04-05T14:46:50.865Z,50.07
2019-04-05T14:49:23.447Z,53.10
2019-04-05T14:51:56.639Z,54.50
2019-04-05T14:54:30.195Z,49.53
2019-04-05T14:57:05.641Z,61.20
2019-04-05T14:59:37.276Z,55.73
2019-04-05T15:02:09.911Z,49.60
2019-04-05T15:04:42.782Z,49.00
2019-04-05T15:07:15.271Z,48.63
2019-04-05T15:09:47.919Z,50.90
2019-04-05T15:12:20.919Z,56.83
2019-04-05T15:14:53.105Z,62.10
2019-04-05T15:17:25.656Z,53.87
2019-04-05T15:19:58.028Z,49.30
2019-04-05T15:22:30.410Z,57.77
2019-04-05T15:25:03.455Z,55.33
2019-04-05T15:27:35.758Z,51.27
2019-04-05T15:30:08.278Z,56.97
2019-04-05T15:32:40.995Z,48.70
2019-04-05T15:35:13.598Z,52.23
2019-04-05T15:37:45.986Z,50.03
2019-04-05T15:40:18.589Z,54.30
2019-04-05T15:42:51.023Z,50.37
2019-04-05T15:45:23.694Z,49.23
2019-04-05T15:47:56.097Z,47.73
2019-04-05T15:50:28.514Z,52.60
2019-04-05T15:53:02.319Z,56.13
2019-04-05T15:55:35.645Z,49.10
2019-04-05T15:58:08.133Z,48.70
2019-04-05T16:00:42.408Z,46.47
2019-04-05T16:03:15.341Z,48.67
2019-04-05T16:05:48.001Z,47.17
2019-04-05T16:08:20.797Z,48.07
2019-04-05T16:10:53.250Z,47.97
2019-04-05T16:13:25.602Z,51.77
2019-04-05T16:15:58.041Z,45.70
2019-04-05T16:18:30.391Z,50.90
2019-04-05T16:21:03.322Z,51.97
2019-04-05T16:23:35.724Z,51.53
2019-04-05T16:26:08.175Z,46.67
2019-04-05T16:28:41.114Z,50.23
2019-04-05T16:31:13.788Z,54.30
2019-04-05T16:33:46.300Z,48.67
2019-04-05T16:36:18.817Z,46.40
2019-04-05T16:38:51.004Z,48.87
2019-04-05T16:41:23.382Z,51.13
2019-04-05T16:43:55.645Z,55.17
2019-04-05T16:46:28.188Z,50.80
2019-04-05T16:49:00.423Z,50.60
2019-04-05T16:51:32.959Z,53.23
2019-04-05T16:54:05.422Z,50.53
2019-04-05T16:56:39.059Z,47.07
2019-04-05T16:59:11.379Z,49.13
2019-04-05T17:01:43.799Z,53.40
2019-04-05T17:04:16.346Z,49.93
2019-04-05T17:06:48.615Z,49.07
2019-04-05T17:09:20.813Z,48.40
2019-04-05T17:11:53.462Z,52.30
2019-04-05T17:14:25.863Z,46.67
2019-04-05T17:16:58.122Z,49.53
2019-04-05T17:19:30.512Z,51.77
2019-04-05T17:22:02.869Z,51.20
2019-04-05T17:24:35.119Z,53.27
2019-04-05T17:27:07.389Z,53.63
2019-04-05T17:29:39.864Z,49.83
2019-04-05T17:32:12.402Z,51.10
2019-04-05T17:34:44.730Z,48.13
2019-04-05T17:37:18.047Z,54.17
2019-04-05T17:39:50.599Z,52.43
2019-04-05T17:42:22.785Z,53.50
2019-04-05T17:44:55.148Z,55.43
2019-04-05T17:47:27.330Z,59.27
2019-04-05T17:49:59.676Z,51.43
2019-04-05T17:52:32.025Z,54.30
2019-04-05T17:55:04.436Z,51.70
2019-04-05T17:57:36.712Z,54.43
2019-04-05T18:00:14.412Z,55.70
2019-04-05T18:02:47.164Z,54.73
2019-04-05T18:05:19.740Z,55.20
2019-04-05T18:07:52.228Z,56.10
2019-04-05T18:10:24.748Z,53.50
2019-04-05T18:12:57.087Z,51.60
2019-04-05T18:15:29.340Z,50.40
2019-04-05T18:18:17.071Z,54.87
2019-04-05T18:20:49.441Z,52.70
2019-04-05T18:23:25.322Z,52.90
2019-04-05T18:25:56.110Z,54.30
2019-04-05T18:28:28.630Z,51.33
2019-04-05T18:31:00.933Z,53.37
2019-04-05T18:33:33.157Z,56.23
2019-04-05T18:36:05.449Z,55.20
2019-04-05T18:38:37.965Z,59.30
2019-04-05T18:41:10.518Z,56.53
2019-04-05T18:43:42.804Z,56.23
2019-04-05T18:46:15.000Z,59.17
2019-04-05T18:48:47.131Z,51.27
2019-04-05T18:51:19.241Z,52.73
2019-04-05T18:53:51.536Z,54.00
2019-04-05T18:56:23.780Z,51.33
2019-04-05T18:58:56.508Z,53.43
2019-04-05T19:01:28.682Z,52.87
2019-04-05T19:04:00.816Z,50.97
2019-04-05T19:06:33.124Z,56.73
2019-04-05T19:09:06.862Z,55.00
2019-04-05T19:11:39.089Z,51.43
2019-04-05T19:14:11.327Z,51.83
2019-04-05T19:16:43.404Z,56.43
2019-04-05T19:19:17.812Z,53.43
2019-04-05T19:21:49.526Z,51.50
2019-04-05T19:24:21.786Z,56.73
2019-04-05T19:26:54.031Z,49.50
2019-04-05T19:29:26.333Z,48.87
2019-04-05T19:49:58.058Z,53.17
2019-04-05T19:52:30.594Z,58.20
2019-04-05T19:55:03.314Z,51.13
2019-04-05T19:57:35.847Z,51.87
2019-04-05T20:00:08.411Z,55.73
2019-04-05T20:02:40.990Z,56.10
2019-04-05T20:05:13.572Z,53.90
2019-04-05T20:07:46.221Z,54.93
2019-04-05T20:10:18.543Z,58.70
2019-04-05T20:12:51.110Z,56.60
2019-04-05T20:15:23.478Z,54.93
2019-04-05T20:17:55.777Z,57.77
2019-04-05T20:20:27.990Z,58.73
2019-04-05T20:23:00.252Z,52.70
2019-04-05T20:25:33.003Z,50.50
2019-04-05T20:28:05.345Z,57.63
2019-04-05T20:30:37.792Z,61.43
2019-04-05T20:33:10.045Z,58.60
2019-04-05T20:35:42.503Z,55.90
2019-04-05T20:38:14.620Z,55.90
2019-04-05T20:40:46.838Z,60.67
2019-04-05T20:43:19.281Z,54.90
2019-04-05T20:45:51.758Z,54.87
2019-04-05T20:48:24.261Z,51.27
2019-04-05T20:50:56.948Z,54.13
2019-04-05T20:53:29.247Z,54.23
2019-04-05T20:56:01.505Z,56.03
2019-04-05T20:58:33.654Z,51.70
2019-04-05T21:01:05.892Z,54.53
2019-04-05T21:03:38.361Z,53.57
2019-04-05T21:06:11.211Z,59.53
2019-04-05T21:08:43.567Z,48.47
2019-04-05T21:11:16.108Z,51.77
2019-04-05T21:13:48.800Z,51.27
2019-04-05T21:16:21.019Z,50.10
2019-04-05T21:18:53.496Z,49.90
2019-04-05T21:21:25.712Z,56.87
2019-04-05T21:23:58.069Z,61.03
2019-04-05T21:26:30.405Z,57.50
2019-04-05T21:29:02.949Z,54.60
2019-04-05T21:31:35.132Z,57.07
2019-04-05T21:34:07.572Z,53.40
2019-04-05T21:36:39.753Z,61.87
2019-04-05T21:39:12.139Z,60.97
2019-04-05T21:41:44.377Z,52.57
2019-04-05T21:44:17.273Z,60.67
2019-04-05T21:46:49.628Z,54.60
2019-04-05T21:49:21.817Z,56.80
2019-04-05T21:51:54.108Z,55.17
2019-04-05T21:54:26.340Z,59.23
2019-04-05T21:56:58.783Z,57.07
2019-04-05T21:59:30.998Z,55.07
2019-04-05T22:02:03.586Z,56.47
2019-04-05T22:04:36.147Z,56.53
2019-04-05T22:07:09.121Z,63.27
2019-04-05T22:09:41.206Z,62.20
2019-04-05T22:12:13.680Z,60.53
2019-04-05T22:14:46.150Z,61.07
2019-04-05T22:17:18.620Z,56.37
2019-04-05T22:19:51.104Z,56.37
2019-04-05T22:22:23.320Z,58.43
2019-04-05T22:24:59.495Z,59.73
2019-04-05T22:27:29.836Z,59.43
2019-04-05T22:30:02.254Z,54.77
2019-04-05T22:32:34.915Z,60.27
2019-04-05T22:35:08.488Z,56.80
2019-04-05T22:37:42.667Z,54.13
2019-04-05T22:40:15.144Z,56.63
2019-04-05T22:42:47.736Z,58.70
2019-04-05T22:45:20.060Z,55.43
2019-04-05T22:47:52.494Z,52.60
2019-04-05T22:50:25.093Z,57.13
2019-04-05T22:52:57.751Z,54.50
2019-04-05T22:55:29.990Z,56.77
2019-04-05T22:58:02.140Z,59.80
2019-04-05T23:00:34.611Z,59.57
2019-04-05T23:03:07.238Z,56.27
2019-04-05T23:05:39.322Z,56.80
2019-04-05T23:08:11.550Z,56.70
2019-04-05T23:10:43.866Z,59.10
2019-04-05T23:13:16.396Z,57.30
2019-04-05T23:15:48.736Z,59.90
2019-04-05T23:18:21.513Z,52.63
2019-04-05T23:20:54.092Z,57.03
2019-04-05T23:23:26.336Z,66.60
2019-04-05T23:25:58.588Z,59.17
2019-04-05T23:28:30.713Z,62.27
2019-04-05T23:31:03.463Z,56.83
2019-04-05T23:33:36.336Z,59.37
2019-04-05T23:36:08.864Z,59.87
2019-04-05T23:38:41.078Z,62.07
2019-04-05T23:41:13.286Z,57.47
2019-04-05T23:43:45.652Z,60.93
2019-04-05T23:46:18.301Z,61.23
2019-04-05T23:48:50.488Z,58.30
2019-04-05T23:51:22.601Z,63.27
2019-04-05T23:53:54.982Z,59.07
2019-04-05T23:56:27.264Z,60.33
2019-04-05T23:58:59.576Z,57.93
